Bridgeport Valley, California Weather observations

Data are for 10 minute period ending at time listed.
 Day   Time   Solar   Ave.   Ave.  Ave.  Vector  Max.   Baro.   Total    
  of    of     Rad.   Air    Rel.  Wind   Wind   Wind  Press.  Precip.   
Year   Day            Temp.  Hum.  Speed  Dir.   Gust                    
2017   (PST)  Kw/m2    F      %     mph   deg.    mph    mb.     in.     
-------------------------------------------------------------------------
 288   22:30   0.00   26.2    79    1.9   249     3.1   811.2    0.00 
 288   22:40   0.00   26.0    78    1.0   279     2.0   811.2    0.00 
 288   22:50   0.00   26.0    78    0.9   251     2.6   811.2    0.00 
 288   23:00   0.00   27.5    70    3.2   222     4.7   811.3    0.00 
 288   23:10   0.00   25.1    77    3.0   237     4.0   811.3    0.00 
 288   23:20   0.00   24.8    82    2.7   252     4.3   811.4    0.00 
 288   23:30   0.00   25.4    80    2.4   236     3.1   811.4    0.00 
 288   23:40   100.00  99999.0   99999  99999.0   99999   99999.0   99999.0   99999.00 
 288   23:50   100.00  99999.0   99999  99999.0   99999   99999.0   99999.0   99999.00 
 289    0:00   100.00  99999.0   99999  99999.0   99999   99999.0   99999.0   99999.00 
 289    0:10   100.00  99999.0   99999  99999.0   99999   99999.0   99999.0   99999.00 
 289    0:20   100.00  99999.0   99999  99999.0   99999   99999.0   99999.0   99999.00 
 289    0:30   0.00   21.6    82    3.4   208     4.1   811.4    0.00 
 289    0:40   100.00  99999.0   99999  99999.0   99999   99999.0   99999.0   99999.00 
 289    0:50   100.00  99999.0   99999  99999.0   99999   99999.0   99999.0   99999.00 
 289    1:00   100.00  99999.0   99999  99999.0   99999   99999.0   99999.0   99999.00 
 289    1:10   100.00  99999.0   99999  99999.0   99999   99999.0   99999.0   99999.00 
 289    1:20   100.00  99999.0   99999  99999.0   99999   99999.0   99999.0   99999.00 
 289    1:30   0.00   22.5    82    1.9   249     3.1   811.4    0.00 
 289    1:40   0.00   21.3    81    2.2   239     2.9   811.5    0.00 
 289    1:50   0.00   20.7    83    2.3   248     2.8   811.4    0.00 
 289    2:00   0.00   19.5    84    3.3   226     4.2   811.4    0.00 
 289    2:10   0.00   19.9    87    0.9   255     2.9   811.2    0.00 
 289    2:20   0.00   19.7    86    1.8   252     2.9   811.2    0.00 
 289    2:30   0.00   19.3    88    1.7   267     2.5   811.1    0.00 
 289    2:40   0.00   19.0    87    2.6   246     3.4   811.1    0.00 
 289    2:50   0.00   17.9    86    2.9   232     4.2   811.1    0.00 
 289    3:00   0.00   17.0    87    2.6   223     3.8   811.1    0.00 
 289    3:10   0.00   17.5    89    2.2   250     2.9   811.0    0.00 
 289    3:20   0.00   17.2    88    2.9   237     3.6   811.1    0.00 
 289    3:30   0.00   18.6    89    1.9   269     3.4   811.0    0.00 
 289    3:40   0.00   18.3    86    1.5   183     3.1   811.0    0.00 
 289    3:50   0.00   16.5    86    0.2   118     1.5   811.1    0.00 
 289    4:00   0.00   16.9    88    0.9   213     2.8   811.1    0.00 
 289    4:10   0.00   16.9    87    2.2   228     2.9   811.1    0.00 
 289    4:20   0.00   16.8    86    2.8   234     4.5   811.2    0.00 
 289    4:30   0.00   17.1    88    1.9   263     3.1   811.3    0.00 
 289    4:40   0.00   17.3    88    1.5   275     2.4   811.3    0.00 
 289    4:50   0.00   18.2    87    0.9   283     2.4   811.4    0.00 
 289    5:00   0.00   16.3    83    1.6   190     3.5   811.6    0.00 
 289    5:10   0.00   15.1    87    3.1   225     4.3   811.6    0.00 
 289    5:20   0.00   15.6    87    2.0   244     3.7   811.6    0.00 
 289    5:30   0.00   15.6    87    2.3   214     2.9   811.6    0.00 
 289    5:40   0.00   16.0    87    2.1   230     2.9   811.6    0.00 
 289    5:50   0.00   15.9    87    1.8   258     3.1   811.7    0.00 
 289    6:00   0.00   15.7    86    1.2   212     2.6   811.8    0.00 
 289    6:10   0.01   16.4    85    1.2   195     3.0   811.9    0.00 
 289    6:20   0.01   15.9    85    0.2   164     1.3   811.9    0.00 
 289    6:30   0.02   17.0    86    1.0   224     2.1   812.0    0.00 
 289    6:40   0.06   18.0    86    1.3   266     2.2   812.0    0.00 
 289    6:50   0.10   19.9    86    0.9   253     1.6   812.1    0.00 
 289    7:00   0.13   22.2    84    0.3   246     1.2   812.1    0.00 
 289    7:10   0.17   24.8    80    0.4   169     1.6   812.2    0.00 
 289    7:20   0.20   26.4    76    1.0   268     1.9   812.1    0.00 
 289    7:30   0.23   28.8    74    0.3   280     1.2   812.1    0.00 
 289    7:40   0.25   33.4    60    0.0     0     0.0   812.1    0.00 
 289    7:50   0.28   35.6    52    0.0     0     0.0   812.0    0.00 
 289    8:00   0.31   36.3    52    0.2   181     1.5   812.0    0.00 
 289    8:10   0.34   38.0    49    0.2    62     1.7   811.9    0.00 
 289    8:20   0.39   38.1    43    0.8    58     1.7   811.9    0.00 
 289    8:30   0.42   39.4    42    0.4   340     1.7   811.9    0.00 
 289    8:40   0.45   41.2    42    0.4    26     2.0   811.9    0.00 
 289    8:50   0.39   42.1    42    1.5    75     3.7   811.9    0.00 
 289    9:00   0.47   43.0    40    0.7    30     2.9   811.9    0.00 
 289    9:10   0.48   45.2    37    0.5   249     1.5   811.9    0.00 
 289    9:20   0.49   46.0    34    0.5   306     1.6   811.9    0.00 
 289    9:30   0.44   47.3    32    0.5   271     1.5   811.8    0.00 
 289    9:40   0.56   49.0    29    0.1   228     0.7   811.8    0.00 
 289    9:50   0.64   51.4    28    1.0   318     2.5   811.8    0.00 
 289   10:00   0.58   52.3    27    0.6   304     2.5   811.7    0.00 
 289   10:10   0.47   53.2    25    0.9    13     2.5   811.6    0.00 
 289   10:20   0.54   53.8    23    1.4   348     3.3   811.5    0.00 
 289   10:30   0.66   55.0    24    1.0   291     2.6   811.4    0.00 
 289   10:40   0.67   57.0    23    1.0   345     2.7   811.3    0.00 
 289   10:50   0.65   58.1    22    0.9    19     2.4   811.1    0.00 
 289   11:00   0.70   60.0    20    0.7   315     2.9   811.0    0.00 
 289   11:10   0.73   60.8    19    1.4    10     3.9   810.8    0.00 
 289   11:20   0.66   62.4    18    1.0    30     2.9   810.7    0.00 
 289   11:30   0.69   63.8    19    1.3    92     3.0   810.5    0.00 
 289   11:40   0.70   64.6    18    1.4    52     3.3   810.3    0.00 
 289   11:50   0.74   65.6    17    1.9    16     3.7   810.1    0.00 
 289   12:00   0.73   66.5    16    1.8   346     4.7   809.9    0.00 
 289   12:10   0.73   67.8    14    1.7    25     4.4   809.8    0.00 
 289   12:20   0.73   69.0    13    1.3    47     3.4   809.6    0.00 
 289   12:30   0.72   70.4    11    0.8   108     1.9   809.4    0.00 
 289   12:40   0.74   71.8     9    1.2   243     4.3   809.2    0.00 
 289   12:50   0.70   72.6     9    1.2   328     2.9   809.0    0.00 
 289   13:00   0.69   72.8     8    1.3   321     4.2   808.8    0.00 
 289   13:10   0.64   73.5     9    1.7   354     4.4   808.6    0.00 
 289   13:20   0.68   74.0     9    1.3   333     4.1   808.4    0.00 
 289   13:30   0.64   74.0     9    2.3   352     5.0   808.3    0.00 
 289   13:40   0.62   74.0     8    1.8    18     4.9   808.1    0.00 
 289   13:50   0.55   74.2     8    1.9   359     3.6   808.0    0.00 
 289   14:00   0.54   75.4     8    0.8   203     3.4   808.0    0.00 
 289   14:10   0.29   74.2     8    1.5   259     3.1   808.0    0.00 
 289   14:20   0.31   72.4    10    1.4   318     2.2   807.9    0.00 
 289   14:30   0.35   72.7    11    3.3   357     6.4   807.8    0.00 
 289   14:40   0.25   69.7    16    5.9    11     8.4   807.9    0.00 
 289   14:50   0.23   68.3    17    6.6    18    11.2   807.9    0.00 
 289   15:00   0.21   67.0    17    7.3    17    11.8   808.0    0.00 
 289   15:10   0.33   67.1    18    7.6    13    11.2   808.1    0.00 
 289   15:20   0.44   70.0    14    9.0    14    13.3   808.1    0.00 
 289   15:30   0.34   69.9    14    9.3    11    13.1   808.1    0.00 
 289   15:40   0.29   68.7    15    9.7     8    14.0   808.0    0.00 
 289   15:50   0.28   67.3    16   10.5     9    14.8   807.9    0.00 
 289   16:00   0.26   66.5    16   10.2     9    14.7   808.0    0.00 
 289   16:10   0.19   65.5    17    9.7    10    13.7   808.0    0.00 
 289   16:20   0.17   63.9    19    9.1     8    12.3   807.9    0.00 
 289   16:30   0.09   62.0    21    8.2    11    12.3   808.0    0.00 
 289   16:40   0.09   60.3    22    7.3    12     9.9   808.0    0.00 
 289   16:50   0.03   58.1    26    7.4    16     9.8   808.0    0.00 
 289   17:00   0.02   55.6    29    6.2     2     8.5   808.2    0.00 
 289   17:10   0.02   53.2    33    6.7   338     8.5   808.3    0.00 
 289   17:20   0.01   52.6    33    7.0   349     9.2   808.3    0.00 
 289   17:30   0.01   53.8    30    7.6   354    10.2   808.3    0.00 
 289   17:40   0.00   52.5    30    5.9    30     8.0   808.5    0.00 
 289   17:50   0.00   49.3    32    3.0   346     7.0   808.7    0.00 
 289   18:00   0.00   46.8    37    3.6   354     5.3   808.8    0.00 
 289   18:10   0.00   46.8    33    3.6    57     5.8   808.9    0.00 
 289   18:20   0.00   44.0    38    2.6   164     4.0   808.9    0.00 
 289   18:30   0.00   39.6    50    2.1   179     4.6   808.9    0.00 
 289   18:40   0.00   40.4    45    2.4   159     4.7   809.0    0.00 
 289   18:50   0.00   38.7    48    3.8   198     5.1   809.1    0.00 
 289   19:00   0.00   39.6    44    2.6   214     3.6   809.0    0.00 
 289   19:10   0.00   40.0    40    2.2   200     3.1   809.1    0.00 
 289   19:20   0.00   39.5    39    3.1   198     5.1   809.2    0.00 
 289   19:30   0.00   40.9    36    1.6   253     3.4   809.1    0.00 
 289   19:40   0.00   41.2    35    3.6   242     5.8   809.1    0.00 
 289   19:50   0.00   36.4    46    3.6   217     5.6   809.1    0.00 
 289   20:00   0.00   34.2    52    1.3   167     4.3   809.2    0.00 
 289   20:10   0.00   31.7    61    3.1   258     4.9   809.1    0.00 
 289   20:20   0.00   30.9    60    3.5   240     4.3   809.1    0.00 
 289   20:30   0.00   32.8    54    3.8   240     5.0   809.2    0.00 
 289   20:40   0.00   32.5    54    3.2   223     4.5   809.2    0.00 
 289   20:50   0.00   32.4    53    2.9   215     3.7   809.3    0.00 
 289   21:00   0.00   34.1    44    3.2   189     4.2   809.2    0.00 
 289   21:10   0.00   34.3    47    1.5   112     3.4   809.4    0.00 
 289   21:20   0.00   31.6    54    0.9    49     3.0   809.5    0.00 
 289   21:30   0.00   32.3    51    3.0   208     4.5   809.6    0.00 
 289   21:40   0.00   31.0    52    3.6   159     5.3   809.6    0.00 
 289   21:50   0.00   30.1    54    1.5   195     2.8   809.6    0.00 
 289   22:00   0.00   30.8    54    2.4   227     3.7   809.6    0.00 
 289   22:10   0.00   30.8    53    3.6   233     5.0   809.5    0.00 
 289   22:20   0.00   30.7    52    3.5   209     4.1   809.5    0.00 

Return to Bridgeport Valley graphs page.


Western Regional Climate Center,wrcc@dri.edu